sensor_id;sensor_type;location;lat;lon;timestamp;temperature;humidity
21061;DHT22;10689;50.836;3.266;2022-11-20T00:01:23;6.70;99.90
21061;DHT22;10689;50.836;3.266;2022-11-20T00:03:51;6.80;99.90
21061;DHT22;10689;50.836;3.266;2022-11-20T00:06:19;6.80;99.90
21061;DHT22;10689;50.836;3.266;2022-11-20T00:08:45;6.90;99.90
21061;DHT22;10689;50.836;3.266;2022-11-20T00:11:18;7.00;99.90
21061;DHT22;10689;50.836;3.266;2022-11-20T00:13:45;7.00;99.90
21061;DHT22;10689;50.836;3.266;2022-11-20T00:16:16;6.80;99.90
21061;DHT22;10689;50.836;3.266;2022-11-20T00:18:42;7.00;99.90
21061;DHT22;10689;50.836;3.266;2022-11-20T00:21:14;7.00;99.90
21061;DHT22;10689;50.836;3.266;2022-11-20T00:23:40;7.00;99.90
21061;DHT22;10689;50.836;3.266;2022-11-20T00:26:12;7.10;99.90
21061;DHT22;10689;50.836;3.266;2022-11-20T00:28:38;7.10;99.90
21061;DHT22;10689;50.836;3.266;2022-11-20T00:31:10;6.90;99.90
21061;DHT22;10689;50.836;3.266;2022-11-20T00:33:36;6.80;99.90
21061;DHT22;10689;50.836;3.266;2022-11-20T00:36:03;6.80;99.90
21061;DHT22;10689;50.836;3.266;2022-11-20T00:38:32;6.80;99.90
21061;DHT22;10689;50.836;3.266;2022-11-20T00:41:00;6.90;99.90
21061;DHT22;10689;50.836;3.266;2022-11-20T00:43:26;7.00;99.90
21061;DHT22;10689;50.836;3.266;2022-11-20T00:45:58;7.00;99.90
21061;DHT22;10689;50.836;3.266;2022-11-20T00:48:24;7.00;99.90
21061;DHT22;10689;50.836;3.266;2022-11-20T00:50:50;7.10;99.90
21061;DHT22;10689;50.836;3.266;2022-11-20T00:53:15;7.20;99.90
21061;DHT22;10689;50.836;3.266;2022-11-20T00:55:41;7.20;99.90
21061;DHT22;10689;50.836;3.266;2022-11-20T00:58:07;7.20;99.90
21061;DHT22;10689;50.836;3.266;2022-11-20T01:00:32;7.40;99.90
21061;DHT22;10689;50.836;3.266;2022-11-20T01:02:58;7.40;99.90
21061;DHT22;10689;50.836;3.266;2022-11-20T01:05:24;7.60;99.90
21061;DHT22;10689;50.836;3.266;2022-11-20T01:07:49;7.60;99.90
21061;DHT22;10689;50.836;3.266;2022-11-20T01:10:15;7.60;99.90
21061;DHT22;10689;50.836;3.266;2022-11-20T01:12:41;7.50;99.90
21061;DHT22;10689;50.836;3.266;2022-11-20T01:15:07;7.40;99.90
21061;DHT22;10689;50.836;3.266;2022-11-20T01:17:33;7.30;99.90
21061;DHT22;10689;50.836;3.266;2022-11-20T01:19:59;7.20;99.90
21061;DHT22;10689;50.836;3.266;2022-11-20T01:22:24;7.10;99.90
21061;DHT22;10689;50.836;3.266;2022-11-20T01:24:50;7.00;99.90
21061;DHT22;10689;50.836;3.266;2022-11-20T01:27:16;7.00;99.90
21061;DHT22;10689;50.836;3.266;2022-11-20T01:29:41;7.10;99.90
21061;DHT22;10689;50.836;3.266;2022-11-20T01:32:07;7.20;99.90
21061;DHT22;10689;50.836;3.266;2022-11-20T01:34:33;7.20;99.90
21061;DHT22;10689;50.836;3.266;2022-11-20T01:36:58;7.20;99.90
21061;DHT22;10689;50.836;3.266;2022-11-20T01:39:25;7.30;99.90
21061;DHT22;10689;50.836;3.266;2022-11-20T01:41:52;7.30;99.90
21061;DHT22;10689;50.836;3.266;2022-11-20T01:45:42;7.40;99.90
21061;DHT22;10689;50.836;3.266;2022-11-20T01:47:49;7.40;99.90
21061;DHT22;10689;50.836;3.266;2022-11-20T01:50:26;7.40;99.90
21061;DHT22;10689;50.836;3.266;2022-11-20T01:52:53;7.50;99.90
21061;DHT22;10689;50.836;3.266;2022-11-20T01:55:31;7.50;99.90
21061;DHT22;10689;50.836;3.266;2022-11-20T01:57:58;7.50;99.90
21061;DHT22;10689;50.836;3.266;2022-11-20T02:00:25;7.50;99.90
21061;DHT22;10689;50.836;3.266;2022-11-20T02:02:58;7.60;99.90
21061;DHT22;10689;50.836;3.266;2022-11-20T02:05:25;7.50;99.90
21061;DHT22;10689;50.836;3.266;2022-11-20T02:07:53;7.50;99.90
21061;DHT22;10689;50.836;3.266;2022-11-20T02:10:20;7.50;99.90
21061;DHT22;10689;50.836;3.266;2022-11-20T02:12:46;7.40;99.90
21061;DHT22;10689;50.836;3.266;2022-11-20T02:15:30;7.40;99.90
21061;DHT22;10689;50.836;3.266;2022-11-20T02:17:57;7.40;99.90
21061;DHT22;10689;50.836;3.266;2022-11-20T02:20:23;7.50;99.90
21061;DHT22;10689;50.836;3.266;2022-11-20T02:22:57;7.60;99.90
21061;DHT22;10689;50.836;3.266;2022-11-20T02:25:26;7.50;99.90
21061;DHT22;10689;50.836;3.266;2022-11-20T02:27:53;7.50;99.90
21061;DHT22;10689;50.836;3.266;2022-11-20T02:30:18;7.50;99.90
21061;DHT22;10689;50.836;3.266;2022-11-20T02:32:44;7.50;99.90
21061;DHT22;10689;50.836;3.266;2022-11-20T02:38:01;7.40;99.90
21061;DHT22;10689;50.836;3.266;2022-11-20T02:40:27;7.40;99.90
21061;DHT22;10689;50.836;3.266;2022-11-20T02:42:54;7.60;99.90
21061;DHT22;10689;50.836;3.266;2022-11-20T02:45:20;7.60;99.90
21061;DHT22;10689;50.836;3.266;2022-11-20T02:47:46;7.50;99.90
21061;DHT22;10689;50.836;3.266;2022-11-20T02:50:13;7.40;99.90
21061;DHT22;10689;50.836;3.266;2022-11-20T02:52:38;7.40;99.90
21061;DHT22;10689;50.836;3.266;2022-11-20T02:55:04;7.40;99.90
21061;DHT22;10689;50.836;3.266;2022-11-20T02:57:30;7.30;99.90
21061;DHT22;10689;50.836;3.266;2022-11-20T02:59:56;7.40;99.90
21061;DHT22;10689;50.836;3.266;2022-11-20T03:02:21;7.40;99.90
21061;DHT22;10689;50.836;3.266;2022-11-20T03:04:47;7.30;99.90
21061;DHT22;10689;50.836;3.266;2022-11-20T03:07:13;7.30;99.90
21061;DHT22;10689;50.836;3.266;2022-11-20T03:09:38;7.30;99.90
21061;DHT22;10689;50.836;3.266;2022-11-20T03:12:04;7.30;99.90
21061;DHT22;10689;50.836;3.266;2022-11-20T03:14:30;7.30;99.90
21061;DHT22;10689;50.836;3.266;2022-11-20T03:16:56;7.30;99.90
21061;DHT22;10689;50.836;3.266;2022-11-20T03:19:22;7.40;99.90
21061;DHT22;10689;50.836;3.266;2022-11-20T03:21:48;7.50;99.90
21061;DHT22;10689;50.836;3.266;2022-11-20T03:24:13;7.50;99.90
21061;DHT22;10689;50.836;3.266;2022-11-20T03:26:40;7.40;99.90
21061;DHT22;10689;50.836;3.266;2022-11-20T03:29:06;7.40;99.90
21061;DHT22;10689;50.836;3.266;2022-11-20T03:31:34;7.40;99.90
21061;DHT22;10689;50.836;3.266;2022-11-20T03:34:00;7.40;99.90
21061;DHT22;10689;50.836;3.266;2022-11-20T03:36:27;7.50;99.90
21061;DHT22;10689;50.836;3.266;2022-11-20T03:38:56;7.50;99.90
21061;DHT22;10689;50.836;3.266;2022-11-20T03:41:25;7.40;99.90
21061;DHT22;10689;50.836;3.266;2022-11-20T03:43:59;7.30;99.90
21061;DHT22;10689;50.836;3.266;2022-11-20T03:46:26;7.30;99.90
21061;DHT22;10689;50.836;3.266;2022-11-20T03:48:53;7.40;99.90
21061;DHT22;10689;50.836;3.266;2022-11-20T03:51:21;7.60;99.90
21061;DHT22;10689;50.836;3.266;2022-11-20T03:53:47;7.40;99.90
21061;DHT22;10689;50.836;3.266;2022-11-20T03:56:16;7.40;99.90
21061;DHT22;10689;50.836;3.266;2022-11-20T03:58:42;7.30;99.90
21061;DHT22;10689;50.836;3.266;2022-11-20T04:01:10;7.20;99.90
21061;DHT22;10689;50.836;3.266;2022-11-20T04:03:37;7.10;99.90
21061;DHT22;10689;50.836;3.266;2022-11-20T04:06:46;7.30;99.90
21061;DHT22;10689;50.836;3.266;2022-11-20T04:08:57;7.30;99.90
21061;DHT22;10689;50.836;3.266;2022-11-20T04:11:25;7.30;99.90
21061;DHT22;10689;50.836;3.266;2022-11-20T04:13:56;7.40;99.90
21061;DHT22;10689;50.836;3.266;2022-11-20T04:16:24;7.40;99.90
21061;DHT22;10689;50.836;3.266;2022-11-20T04:18:57;7.30;99.90
21061;DHT22;10689;50.836;3.266;2022-11-20T04:21:24;7.30;99.90
21061;DHT22;10689;50.836;3.266;2022-11-20T04:23:51;7.20;99.90
21061;DHT22;10689;50.836;3.266;2022-11-20T04:26:18;7.20;99.90
21061;DHT22;10689;50.836;3.266;2022-11-20T04:28:44;7.20;99.90
21061;DHT22;10689;50.836;3.266;2022-11-20T04:31:18;7.20;99.90
21061;DHT22;10689;50.836;3.266;2022-11-20T04:33:45;7.10;99.90
21061;DHT22;10689;50.836;3.266;2022-11-20T04:36:16;7.10;99.90
21061;DHT22;10689;50.836;3.266;2022-11-20T04:38:43;7.10;99.90
21061;DHT22;10689;50.836;3.266;2022-11-20T04:41:20;7.10;99.90
21061;DHT22;10689;50.836;3.266;2022-11-20T04:43:51;7.30;99.90
21061;DHT22;10689;50.836;3.266;2022-11-20T04:46:19;7.30;99.90
21061;DHT22;10689;50.836;3.266;2022-11-20T04:48:45;7.30;99.90
21061;DHT22;10689;50.836;3.266;2022-11-20T04:51:11;7.30;99.90
21061;DHT22;10689;50.836;3.266;2022-11-20T04:53:37;7.20;99.90
21061;DHT22;10689;50.836;3.266;2022-11-20T04:56:05;7.30;99.90
21061;DHT22;10689;50.836;3.266;2022-11-20T04:58:31;7.50;99.90
21061;DHT22;10689;50.836;3.266;2022-11-20T05:01:05;7.50;99.90
21061;DHT22;10689;50.836;3.266;2022-11-20T05:03:31;7.50;99.90
21061;DHT22;10689;50.836;3.266;2022-11-20T05:06:02;7.30;99.90
21061;DHT22;10689;50.836;3.266;2022-11-20T05:08:29;7.40;99.90
21061;DHT22;10689;50.836;3.266;2022-11-20T05:11:01;7.30;99.90
21061;DHT22;10689;50.836;3.266;2022-11-20T05:13:27;7.40;99.90
21061;DHT22;10689;50.836;3.266;2022-11-20T05:15:53;7.40;99.90
21061;DHT22;10689;50.836;3.266;2022-11-20T05:18:19;7.40;99.90
21061;DHT22;10689;50.836;3.266;2022-11-20T05:20:44;7.30;99.90
21061;DHT22;10689;50.836;3.266;2022-11-20T05:23:10;7.30;99.90
21061;DHT22;10689;50.836;3.266;2022-11-20T05:25:35;7.30;99.90
21061;DHT22;10689;50.836;3.266;2022-11-20T05:28:01;7.30;99.90
21061;DHT22;10689;50.836;3.266;2022-11-20T05:30:27;7.30;99.90
21061;DHT22;10689;50.836;3.266;2022-11-20T05:32:52;7.30;99.90
21061;DHT22;10689;50.836;3.266;2022-11-20T05:35:18;7.20;99.90
21061;DHT22;10689;50.836;3.266;2022-11-20T05:37:44;7.20;99.90
21061;DHT22;10689;50.836;3.266;2022-11-20T05:40:10;7.20;99.90
21061;DHT22;10689;50.836;3.266;2022-11-20T05:42:36;7.20;99.90
21061;DHT22;10689;50.836;3.266;2022-11-20T05:45:04;7.30;99.90
21061;DHT22;10689;50.836;3.266;2022-11-20T05:47:34;7.30;99.90
21061;DHT22;10689;50.836;3.266;2022-11-20T05:50:00;7.40;99.90
21061;DHT22;10689;50.836;3.266;2022-11-20T05:52:29;7.40;99.90
21061;DHT22;10689;50.836;3.266;2022-11-20T05:54:55;7.30;99.90
21061;DHT22;10689;50.836;3.266;2022-11-20T05:57:21;7.40;99.90
21061;DHT22;10689;50.836;3.266;2022-11-20T05:59:47;7.20;99.90
21061;DHT22;10689;50.836;3.266;2022-11-20T06:02:13;7.30;99.90
21061;DHT22;10689;50.836;3.266;2022-11-20T06:04:38;7.30;99.90
21061;DHT22;10689;50.836;3.266;2022-11-20T06:07:07;7.30;99.90
21061;DHT22;10689;50.836;3.266;2022-11-20T06:09:33;7.30;99.90
21061;DHT22;10689;50.836;3.266;2022-11-20T06:11:59;7.20;99.90
21061;DHT22;10689;50.836;3.266;2022-11-20T06:14:25;7.20;99.90
21061;DHT22;10689;50.836;3.266;2022-11-20T06:16:50;7.20;99.90
21061;DHT22;10689;50.836;3.266;2022-11-20T06:19:16;7.10;99.90
21061;DHT22;10689;50.836;3.266;2022-11-20T06:21:42;7.10;99.90
21061;DHT22;10689;50.836;3.266;2022-11-20T06:24:09;7.10;99.90
21061;DHT22;10689;50.836;3.266;2022-11-20T06:26:35;7.10;99.90
21061;DHT22;10689;50.836;3.266;2022-11-20T06:29:01;7.20;99.90
21061;DHT22;10689;50.836;3.266;2022-11-20T06:31:27;7.20;99.90
21061;DHT22;10689;50.836;3.266;2022-11-20T06:33:54;7.20;99.90
21061;DHT22;10689;50.836;3.266;2022-11-20T06:36:22;7.20;99.90
21061;DHT22;10689;50.836;3.266;2022-11-20T06:38:48;7.30;99.90
21061;DHT22;10689;50.836;3.266;2022-11-20T06:41:16;7.40;99.90
21061;DHT22;10689;50.836;3.266;2022-11-20T06:43:42;7.40;99.90
21061;DHT22;10689;50.836;3.266;2022-11-20T06:46:09;7.50;99.90
21061;DHT22;10689;50.836;3.266;2022-11-20T06:48:35;7.50;99.90
21061;DHT22;10689;50.836;3.266;2022-11-20T06:51:04;7.50;99.90
21061;DHT22;10689;50.836;3.266;2022-11-20T06:53:30;7.50;99.90
21061;DHT22;10689;50.836;3.266;2022-11-20T06:55:56;7.40;99.90
21061;DHT22;10689;50.836;3.266;2022-11-20T06:58:23;7.50;99.90
21061;DHT22;10689;50.836;3.266;2022-11-20T07:00:49;7.50;99.90
21061;DHT22;10689;50.836;3.266;2022-11-20T07:03:14;7.50;99.90
21061;DHT22;10689;50.836;3.266;2022-11-20T07:05:40;7.60;99.90
21061;DHT22;10689;50.836;3.266;2022-11-20T07:08:06;7.70;99.90
21061;DHT22;10689;50.836;3.266;2022-11-20T07:10:32;7.70;99.90
21061;DHT22;10689;50.836;3.266;2022-11-20T07:12:58;7.60;99.90
21061;DHT22;10689;50.836;3.266;2022-11-20T07:15:25;7.70;99.90
21061;DHT22;10689;50.836;3.266;2022-11-20T07:17:51;7.70;99.90
21061;DHT22;10689;50.836;3.266;2022-11-20T07:20:17;7.70;99.90
21061;DHT22;10689;50.836;3.266;2022-11-20T07:22:43;7.70;99.90
21061;DHT22;10689;50.836;3.266;2022-11-20T07:25:09;7.60;99.90
21061;DHT22;10689;50.836;3.266;2022-11-20T07:27:35;7.60;99.90
21061;DHT22;10689;50.836;3.266;2022-11-20T07:30:02;7.70;99.90
21061;DHT22;10689;50.836;3.266;2022-11-20T07:32:28;7.80;99.90
21061;DHT22;10689;50.836;3.266;2022-11-20T07:34:54;7.80;99.90
21061;DHT22;10689;50.836;3.266;2022-11-20T07:37:20;7.80;99.90
21061;DHT22;10689;50.836;3.266;2022-11-20T07:39:46;7.80;99.90
21061;DHT22;10689;50.836;3.266;2022-11-20T07:42:11;7.80;99.90
21061;DHT22;10689;50.836;3.266;2022-11-20T07:44:38;7.80;99.90
21061;DHT22;10689;50.836;3.266;2022-11-20T07:47:04;7.90;99.90
21061;DHT22;10689;50.836;3.266;2022-11-20T07:49:29;7.90;99.90
21061;DHT22;10689;50.836;3.266;2022-11-20T07:51:55;7.90;99.90
21061;DHT22;10689;50.836;3.266;2022-11-20T07:54:22;7.90;99.90
21061;DHT22;10689;50.836;3.266;2022-11-20T07:56:50;8.00;99.90
21061;DHT22;10689;50.836;3.266;2022-11-20T07:59:16;7.90;99.90
21061;DHT22;10689;50.836;3.266;2022-11-20T08:01:42;7.90;99.90
21061;DHT22;10689;50.836;3.266;2022-11-20T08:04:09;8.00;99.90
21061;DHT22;10689;50.836;3.266;2022-11-20T08:06:35;8.10;99.90
21061;DHT22;10689;50.836;3.266;2022-11-20T08:09:01;8.20;99.90
21061;DHT22;10689;50.836;3.266;2022-11-20T08:11:27;8.20;99.90
21061;DHT22;10689;50.836;3.266;2022-11-20T08:14:11;8.20;99.90
21061;DHT22;10689;50.836;3.266;2022-11-20T08:16:47;8.20;99.90
21061;DHT22;10689;50.836;3.266;2022-11-20T08:19:14;8.20;99.90
21061;DHT22;10689;50.836;3.266;2022-11-20T08:21:40;8.30;99.90
21061;DHT22;10689;50.836;3.266;2022-11-20T08:24:06;8.20;99.90
21061;DHT22;10689;50.836;3.266;2022-11-20T08:26:33;8.30;99.90
21061;DHT22;10689;50.836;3.266;2022-11-20T08:28:59;8.30;99.90
21061;DHT22;10689;50.836;3.266;2022-11-20T08:31:26;8.30;99.90
21061;DHT22;10689;50.836;3.266;2022-11-20T08:33:54;8.40;99.90
21061;DHT22;10689;50.836;3.266;2022-11-20T08:36:21;8.50;99.90
21061;DHT22;10689;50.836;3.266;2022-11-20T08:38:48;8.60;99.90
21061;DHT22;10689;50.836;3.266;2022-11-20T08:41:14;8.60;99.90
21061;DHT22;10689;50.836;3.266;2022-11-20T08:44:05;8.70;99.90
21061;DHT22;10689;50.836;3.266;2022-11-20T08:46:37;8.70;99.90
21061;DHT22;10689;50.836;3.266;2022-11-20T08:49:08;8.70;99.90
21061;DHT22;10689;50.836;3.266;2022-11-20T08:51:34;8.70;99.90
21061;DHT22;10689;50.836;3.266;2022-11-20T08:54:00;8.80;99.90
21061;DHT22;10689;50.836;3.266;2022-11-20T08:56:28;8.80;99.90
21061;DHT22;10689;50.836;3.266;2022-11-20T08:58:54;8.90;99.90
21061;DHT22;10689;50.836;3.266;2022-11-20T09:01:21;8.90;99.90
21061;DHT22;10689;50.836;3.266;2022-11-20T09:03:47;9.00;99.90
21061;DHT22;10689;50.836;3.266;2022-11-20T09:06:13;9.00;99.90
21061;DHT22;10689;50.836;3.266;2022-11-20T09:08:39;9.00;99.90
21061;DHT22;10689;50.836;3.266;2022-11-20T09:11:05;9.00;99.90
21061;DHT22;10689;50.836;3.266;2022-11-20T09:13:32;9.00;99.90
21061;DHT22;10689;50.836;3.266;2022-11-20T09:16:02;9.10;99.90
21061;DHT22;10689;50.836;3.266;2022-11-20T09:18:29;9.20;99.90
21061;DHT22;10689;50.836;3.266;2022-11-20T09:21:01;9.10;99.90
21061;DHT22;10689;50.836;3.266;2022-11-20T09:23:31;9.20;99.90
21061;DHT22;10689;50.836;3.266;2022-11-20T09:25:57;9.20;99.90
21061;DHT22;10689;50.836;3.266;2022-11-20T09:28:25;9.40;99.90
21061;DHT22;10689;50.836;3.266;2022-11-20T09:30:51;9.40;99.90
21061;DHT22;10689;50.836;3.266;2022-11-20T09:33:17;9.50;99.90
21061;DHT22;10689;50.836;3.266;2022-11-20T09:35:43;9.60;99.90
21061;DHT22;10689;50.836;3.266;2022-11-20T09:38:10;9.70;99.90
21061;DHT22;10689;50.836;3.266;2022-11-20T09:40:39;9.80;99.90
21061;DHT22;10689;50.836;3.266;2022-11-20T09:46:57;10.10;99.90
21061;DHT22;10689;50.836;3.266;2022-11-20T09:54:35;10.20;99.90
21061;DHT22;10689;50.836;3.266;2022-11-20T09:57:14;10.30;99.90
21061;DHT22;10689;50.836;3.266;2022-11-20T10:02:29;10.50;99.90
21061;DHT22;10689;50.836;3.266;2022-11-20T10:08:17;10.70;99.90
21061;DHT22;10689;50.836;3.266;2022-11-20T10:10:53;10.70;99.90
21061;DHT22;10689;50.836;3.266;2022-11-20T10:16:47;10.70;99.90
21061;DHT22;10689;50.836;3.266;2022-11-20T10:25:14;10.50;99.90
21061;DHT22;10689;50.836;3.266;2022-11-20T10:30:42;10.40;99.90
21061;DHT22;10689;50.836;3.266;2022-11-20T10:33:22;10.50;99.90
21061;DHT22;10689;50.836;3.266;2022-11-20T10:38:48;10.20;99.90
21061;DHT22;10689;50.836;3.266;2022-11-20T10:41:32;10.20;99.90
21061;DHT22;10689;50.836;3.266;2022-11-20T10:44:05;10.20;99.90
21061;DHT22;10689;50.836;3.266;2022-11-20T10:46:44;10.20;99.90
21061;DHT22;10689;50.836;3.266;2022-11-20T10:49:15;9.90;99.90
21061;DHT22;10689;50.836;3.266;2022-11-20T11:00:21;9.50;99.90
21061;DHT22;10689;50.836;3.266;2022-11-20T11:02:50;9.60;99.90
21061;DHT22;10689;50.836;3.266;2022-11-20T11:07:55;9.80;99.90
21061;DHT22;10689;50.836;3.266;2022-11-20T11:11:42;9.80;99.90
21061;DHT22;10689;50.836;3.266;2022-11-20T11:13:36;9.80;99.90
21061;DHT22;10689;50.836;3.266;2022-11-20T11:16:03;9.90;99.90
21061;DHT22;10689;50.836;3.266;2022-11-20T11:18:33;9.80;99.90
21061;DHT22;10689;50.836;3.266;2022-11-20T11:21:01;9.60;99.90
21061;DHT22;10689;50.836;3.266;2022-11-20T11:23:38;9.50;99.90
21061;DHT22;10689;50.836;3.266;2022-11-20T11:26:19;9.50;99.90
21061;DHT22;10689;50.836;3.266;2022-11-20T11:29:16;9.40;99.90
21061;DHT22;10689;50.836;3.266;2022-11-20T11:31:42;9.40;99.90
21061;DHT22;10689;50.836;3.266;2022-11-20T11:36:42;9.40;99.90
21061;DHT22;10689;50.836;3.266;2022-11-20T11:39:17;9.40;99.90
21061;DHT22;10689;50.836;3.266;2022-11-20T11:41:45;9.40;99.90
21061;DHT22;10689;50.836;3.266;2022-11-20T11:46:59;9.30;99.90
21061;DHT22;10689;50.836;3.266;2022-11-20T11:49:25;9.30;99.90
21061;DHT22;10689;50.836;3.266;2022-11-20T11:54:41;9.30;99.90
21061;DHT22;10689;50.836;3.266;2022-11-20T12:00:10;9.30;99.90
21061;DHT22;10689;50.836;3.266;2022-11-20T12:15:42;9.00;99.90
21061;DHT22;10689;50.836;3.266;2022-11-20T12:18:14;9.10;99.90
21061;DHT22;10689;50.836;3.266;2022-11-20T12:21:18;9.10;99.90
21061;DHT22;10689;50.836;3.266;2022-11-20T12:29:05;9.40;99.90
21061;DHT22;10689;50.836;3.266;2022-11-20T12:34:46;9.50;99.90
21061;DHT22;10689;50.836;3.266;2022-11-20T12:37:30;9.50;99.90
21061;DHT22;10689;50.836;3.266;2022-11-20T12:46:32;9.40;99.90
21061;DHT22;10689;50.836;3.266;2022-11-20T12:51:58;9.40;99.90
21061;DHT22;10689;50.836;3.266;2022-11-20T12:54:54;9.40;99.90
21061;DHT22;10689;50.836;3.266;2022-11-20T12:57:45;9.50;99.90
21061;DHT22;10689;50.836;3.266;2022-11-20T13:00:18;9.50;99.90
21061;DHT22;10689;50.836;3.266;2022-11-20T13:03:24;9.60;99.90
21061;DHT22;10689;50.836;3.266;2022-11-20T13:06:14;9.70;99.90
21061;DHT22;10689;50.836;3.266;2022-11-20T13:08:43;9.70;99.90
21061;DHT22;10689;50.836;3.266;2022-11-20T13:16:30;9.80;99.90
21061;DHT22;10689;50.836;3.266;2022-11-20T13:19:02;9.80;99.90
21061;DHT22;10689;50.836;3.266;2022-11-20T13:21:41;9.80;99.90
21061;DHT22;10689;50.836;3.266;2022-11-20T13:26:46;9.90;99.90
21061;DHT22;10689;50.836;3.266;2022-11-20T13:29:17;9.90;99.90
21061;DHT22;10689;50.836;3.266;2022-11-20T13:31:45;10.10;99.90
21061;DHT22;10689;50.836;3.266;2022-11-20T13:34:23;10.20;99.90
21061;DHT22;10689;50.836;3.266;2022-11-20T13:36:52;10.40;99.90
21061;DHT22;10689;50.836;3.266;2022-11-20T13:39:35;10.60;99.90
21061;DHT22;10689;50.836;3.266;2022-11-20T13:42:03;10.70;99.90
21061;DHT22;10689;50.836;3.266;2022-11-20T13:44:54;10.70;99.90
21061;DHT22;10689;50.836;3.266;2022-11-20T13:47:28;10.60;99.90
21061;DHT22;10689;50.836;3.266;2022-11-20T13:49:55;10.70;99.90
21061;DHT22;10689;50.836;3.266;2022-11-20T14:01:10;10.50;99.90
21061;DHT22;10689;50.836;3.266;2022-11-20T14:03:40;10.70;99.90
21061;DHT22;10689;50.836;3.266;2022-11-20T14:06:34;10.70;99.90
21061;DHT22;10689;50.836;3.266;2022-11-20T14:08:58;10.70;99.90
21061;DHT22;10689;50.836;3.266;2022-11-20T14:11:27;10.70;99.90
21061;DHT22;10689;50.836;3.266;2022-11-20T14:16:44;10.70;99.90
21061;DHT22;10689;50.836;3.266;2022-11-20T14:21:49;10.80;99.90
21061;DHT22;10689;50.836;3.266;2022-11-20T14:24:19;10.70;99.90
21061;DHT22;10689;50.836;3.266;2022-11-20T14:26:46;10.60;99.90
21061;DHT22;10689;50.836;3.266;2022-11-20T14:29:17;10.60;99.90
21061;DHT22;10689;50.836;3.266;2022-11-20T14:31:44;10.50;99.90
21061;DHT22;10689;50.836;3.266;2022-11-20T14:34:24;10.50;99.90
21061;DHT22;10689;50.836;3.266;2022-11-20T14:36:53;10.60;99.90
21061;DHT22;10689;50.836;3.266;2022-11-20T14:39:22;10.60;99.90
21061;DHT22;10689;50.836;3.266;2022-11-20T14:41:51;10.60;99.90
21061;DHT22;10689;50.836;3.266;2022-11-20T14:44:18;10.70;99.90
21061;DHT22;10689;50.836;3.266;2022-11-20T14:46:45;10.70;99.90
21061;DHT22;10689;50.836;3.266;2022-11-20T14:49:11;10.60;99.90
21061;DHT22;10689;50.836;3.266;2022-11-20T14:51:39;10.50;99.90
21061;DHT22;10689;50.836;3.266;2022-11-20T14:54:15;10.60;99.90
21061;DHT22;10689;50.836;3.266;2022-11-20T14:56:42;10.60;99.90
21061;DHT22;10689;50.836;3.266;2022-11-20T14:59:23;10.60;99.90
21061;DHT22;10689;50.836;3.266;2022-11-20T15:02:00;10.60;99.90
21061;DHT22;10689;50.836;3.266;2022-11-20T15:04:26;10.70;99.90
21061;DHT22;10689;50.836;3.266;2022-11-20T15:06:55;10.60;99.90
21061;DHT22;10689;50.836;3.266;2022-11-20T15:09:21;10.60;99.90
21061;DHT22;10689;50.836;3.266;2022-11-20T15:12:01;10.50;99.90
21061;DHT22;10689;50.836;3.266;2022-11-20T15:14:28;10.50;99.90
21061;DHT22;10689;50.836;3.266;2022-11-20T15:16:55;10.50;99.90
21061;DHT22;10689;50.836;3.266;2022-11-20T15:19:23;10.40;99.90
21061;DHT22;10689;50.836;3.266;2022-11-20T15:21:50;10.40;99.90
21061;DHT22;10689;50.836;3.266;2022-11-20T15:24:16;10.30;99.90
21061;DHT22;10689;50.836;3.266;2022-11-20T15:26:42;10.30;99.90
21061;DHT22;10689;50.836;3.266;2022-11-20T15:29:11;10.30;99.90
21061;DHT22;10689;50.836;3.266;2022-11-20T15:31:38;10.30;99.90
21061;DHT22;10689;50.836;3.266;2022-11-20T15:34:13;10.30;99.90
21061;DHT22;10689;50.836;3.266;2022-11-20T15:36:39;10.30;99.90
21061;DHT22;10689;50.836;3.266;2022-11-20T15:39:05;10.30;99.90
21061;DHT22;10689;50.836;3.266;2022-11-20T15:41:35;10.20;99.90
21061;DHT22;10689;50.836;3.266;2022-11-20T15:44:05;10.10;99.90
21061;DHT22;10689;50.836;3.266;2022-11-20T15:46:32;10.20;99.90
21061;DHT22;10689;50.836;3.266;2022-11-20T15:49:04;10.10;99.90
21061;DHT22;10689;50.836;3.266;2022-11-20T15:51:35;10.10;99.90
21061;DHT22;10689;50.836;3.266;2022-11-20T15:54:18;10.10;99.90
21061;DHT22;10689;50.836;3.266;2022-11-20T15:56:46;10.10;99.90
21061;DHT22;10689;50.836;3.266;2022-11-20T15:59:12;10.10;99.90
21061;DHT22;10689;50.836;3.266;2022-11-20T16:01:40;10.00;99.90
21061;DHT22;10689;50.836;3.266;2022-11-20T16:04:11;9.90;99.90
21061;DHT22;10689;50.836;3.266;2022-11-20T16:06:37;10.00;99.90
21061;DHT22;10689;50.836;3.266;2022-11-20T16:09:03;10.10;99.90
21061;DHT22;10689;50.836;3.266;2022-11-20T16:11:29;10.20;99.90
21061;DHT22;10689;50.836;3.266;2022-11-20T16:13:55;10.20;99.90
21061;DHT22;10689;50.836;3.266;2022-11-20T16:16:39;10.20;99.90
21061;DHT22;10689;50.836;3.266;2022-11-20T16:19:10;10.10;99.90
21061;DHT22;10689;50.836;3.266;2022-11-20T16:21:36;10.00;99.90
21061;DHT22;10689;50.836;3.266;2022-11-20T16:24:06;9.90;99.90
21061;DHT22;10689;50.836;3.266;2022-11-20T16:26:34;9.90;99.90
21061;DHT22;10689;50.836;3.266;2022-11-20T16:29:01;9.90;99.90
21061;DHT22;10689;50.836;3.266;2022-11-20T16:31:28;9.80;99.90
21061;DHT22;10689;50.836;3.266;2022-11-20T16:33:55;9.80;99.90
21061;DHT22;10689;50.836;3.266;2022-11-20T16:36:23;9.80;99.90
21061;DHT22;10689;50.836;3.266;2022-11-20T16:38:54;9.80;99.90
21061;DHT22;10689;50.836;3.266;2022-11-20T16:41:20;9.80;99.90
21061;DHT22;10689;50.836;3.266;2022-11-20T16:43:46;9.70;99.90
21061;DHT22;10689;50.836;3.266;2022-11-20T16:46:14;9.70;99.90
21061;DHT22;10689;50.836;3.266;2022-11-20T16:48:40;9.60;99.90
21061;DHT22;10689;50.836;3.266;2022-11-20T16:51:09;9.50;99.90
21061;DHT22;10689;50.836;3.266;2022-11-20T16:53:35;9.50;99.90
21061;DHT22;10689;50.836;3.266;2022-11-20T16:56:14;9.40;99.90
21061;DHT22;10689;50.836;3.266;2022-11-20T16:58:42;9.40;99.90
21061;DHT22;10689;50.836;3.266;2022-11-20T17:01:09;9.30;99.90
21061;DHT22;10689;50.836;3.266;2022-11-20T17:03:37;9.40;99.90
21061;DHT22;10689;50.836;3.266;2022-11-20T17:06:15;9.50;99.90
21061;DHT22;10689;50.836;3.266;2022-11-20T17:08:41;9.50;99.90
21061;DHT22;10689;50.836;3.266;2022-11-20T17:11:08;9.40;99.90
21061;DHT22;10689;50.836;3.266;2022-11-20T17:13:35;9.30;99.90
21061;DHT22;10689;50.836;3.266;2022-11-20T17:16:02;9.30;99.90
21061;DHT22;10689;50.836;3.266;2022-11-20T17:18:28;9.40;99.90
21061;DHT22;10689;50.836;3.266;2022-11-20T17:20:54;9.40;99.90
21061;DHT22;10689;50.836;3.266;2022-11-20T17:23:20;9.50;99.90
21061;DHT22;10689;50.836;3.266;2022-11-20T17:25:45;9.40;99.90
21061;DHT22;10689;50.836;3.266;2022-11-20T17:28:11;9.30;99.90
21061;DHT22;10689;50.836;3.266;2022-11-20T17:30:37;9.20;99.90
21061;DHT22;10689;50.836;3.266;2022-11-20T17:33:03;9.10;99.90
21061;DHT22;10689;50.836;3.266;2022-11-20T17:35:29;9.10;99.90
21061;DHT22;10689;50.836;3.266;2022-11-20T17:37:54;9.00;99.90
21061;DHT22;10689;50.836;3.266;2022-11-20T17:40:20;9.00;99.90
21061;DHT22;10689;50.836;3.266;2022-11-20T17:42:46;9.10;99.90